sensor_id;sensor_type;location;lat;lon;timestamp;P1;durP1;ratioP1;P2;durP2;ratioP2
19923;SDS011;10124;53.068;18.224;2023-06-26T00:01:47;19.88;;;12.30;;
19923;SDS011;10124;53.068;18.224;2023-06-26T00:04:15;20.65;;;12.27;;
19923;SDS011;10124;53.068;18.224;2023-06-26T00:06:42;15.80;;;10.30;;
19923;SDS011;10124;53.068;18.224;2023-06-26T00:09:10;15.65;;;10.27;;
19923;SDS011;10124;53.068;18.224;2023-06-26T00:11:39;14.27;;;9.45;;
19923;SDS011;10124;53.068;18.224;2023-06-26T00:14:07;13.65;;;8.43;;
19923;SDS011;10124;53.068;18.224;2023-06-26T00:16:35;14.27;;;8.73;;
19923;SDS011;10124;53.068;18.224;2023-06-26T00:19:04;12.30;;;8.52;;
19923;SDS011;10124;53.068;18.224;2023-06-26T00:21:32;15.95;;;9.52;;
19923;SDS011;10124;53.068;18.224;2023-06-26T00:23:59;9.48;;;7.72;;
19923;SDS011;10124;53.068;18.224;2023-06-26T00:26:28;9.02;;;7.82;;
19923;SDS011;10124;53.068;18.224;2023-06-26T00:28:56;11.63;;;8.60;;
19923;SDS011;10124;53.068;18.224;2023-06-26T00:31:24;10.52;;;7.85;;
19923;SDS011;10124;53.068;18.224;2023-06-26T00:33:52;10.20;;;7.82;;
19923;SDS011;10124;53.068;18.224;2023-06-26T00:36:20;10.70;;;7.32;;
19923;SDS011;10124;53.068;18.224;2023-06-26T00:38:50;9.95;;;7.82;;
19923;SDS011;10124;53.068;18.224;2023-06-26T00:41:19;11.23;;;7.47;;
19923;SDS011;10124;53.068;18.224;2023-06-26T00:43:46;15.95;;;8.35;;
19923;SDS011;10124;53.068;18.224;2023-06-26T00:46:14;9.43;;;7.55;;
19923;SDS011;10124;53.068;18.224;2023-06-26T00:48:42;8.98;;;7.82;;
19923;SDS011;10124;53.068;18.224;2023-06-26T00:51:13;9.95;;;8.27;;
19923;SDS011;10124;53.068;18.224;2023-06-26T00:53:41;16.30;;;8.00;;
19923;SDS011;10124;53.068;18.224;2023-06-26T00:56:10;19.95;;;8.13;;
19923;SDS011;10124;53.068;18.224;2023-06-26T00:58:38;13.05;;;8.43;;
19923;SDS011;10124;53.068;18.224;2023-06-26T01:01:06;17.42;;;8.75;;
19923;SDS011;10124;53.068;18.224;2023-06-26T01:03:38;17.60;;;8.95;;
19923;SDS011;10124;53.068;18.224;2023-06-26T01:06:07;10.10;;;8.18;;
19923;SDS011;10124;53.068;18.224;2023-06-26T01:08:38;11.15;;;7.70;;
19923;SDS011;10124;53.068;18.224;2023-06-26T01:11:06;11.65;;;8.40;;
19923;SDS011;10124;53.068;18.224;2023-06-26T01:13:34;11.77;;;7.78;;
19923;SDS011;10124;53.068;18.224;2023-06-26T01:16:04;9.70;;;8.52;;
19923;SDS011;10124;53.068;18.224;2023-06-26T01:18:32;11.57;;;7.90;;
19923;SDS011;10124;53.068;18.224;2023-06-26T01:21:03;16.58;;;8.50;;
19923;SDS011;10124;53.068;18.224;2023-06-26T01:23:35;14.10;;;8.82;;
19923;SDS011;10124;53.068;18.224;2023-06-26T01:26:19;15.05;;;9.00;;
19923;SDS011;10124;53.068;18.224;2023-06-26T01:28:49;18.25;;;9.82;;
19923;SDS011;10124;53.068;18.224;2023-06-26T01:31:20;15.82;;;8.45;;
19923;SDS011;10124;53.068;18.224;2023-06-26T01:33:49;13.57;;;8.50;;
19923;SDS011;10124;53.068;18.224;2023-06-26T01:36:20;12.57;;;9.10;;
19923;SDS011;10124;53.068;18.224;2023-06-26T01:38:48;11.38;;;8.48;;
19923;SDS011;10124;53.068;18.224;2023-06-26T01:41:16;13.48;;;8.88;;
19923;SDS011;10124;53.068;18.224;2023-06-26T01:43:55;11.75;;;8.73;;
19923;SDS011;10124;53.068;18.224;2023-06-26T01:46:37;16.10;;;8.52;;
19923;SDS011;10124;53.068;18.224;2023-06-26T01:52:19;13.87;;;8.63;;
19923;SDS011;10124;53.068;18.224;2023-06-26T01:54:53;11.47;;;8.23;;
19923;SDS011;10124;53.068;18.224;2023-06-26T01:57:21;11.07;;;8.13;;
19923;SDS011;10124;53.068;18.224;2023-06-26T01:59:52;12.57;;;9.03;;
19923;SDS011;10124;53.068;18.224;2023-06-26T02:02:23;9.73;;;8.60;;
19923;SDS011;10124;53.068;18.224;2023-06-26T02:04:51;10.77;;;7.57;;
19923;SDS011;10124;53.068;18.224;2023-06-26T02:07:19;19.17;;;8.20;;
19923;SDS011;10124;53.068;18.224;2023-06-26T02:09:47;9.63;;;8.13;;
19923;SDS011;10124;53.068;18.224;2023-06-26T02:12:15;10.77;;;8.50;;
19923;SDS011;10124;53.068;18.224;2023-06-26T02:14:43;13.17;;;8.73;;
19923;SDS011;10124;53.068;18.224;2023-06-26T02:17:11;11.00;;;8.90;;
19923;SDS011;10124;53.068;18.224;2023-06-26T02:19:38;12.03;;;8.40;;
19923;SDS011;10124;53.068;18.224;2023-06-26T02:22:14;9.93;;;8.70;;
19923;SDS011;10124;53.068;18.224;2023-06-26T02:24:43;9.60;;;7.83;;
19923;SDS011;10124;53.068;18.224;2023-06-26T02:27:11;11.20;;;8.33;;
19923;SDS011;10124;53.068;18.224;2023-06-26T02:29:39;10.23;;;7.70;;
19923;SDS011;10124;53.068;18.224;2023-06-26T02:32:08;10.73;;;7.97;;
19923;SDS011;10124;53.068;18.224;2023-06-26T02:34:36;10.30;;;7.90;;
19923;SDS011;10124;53.068;18.224;2023-06-26T02:37:03;11.67;;;8.17;;
19923;SDS011;10124;53.068;18.224;2023-06-26T02:39:34;9.90;;;7.73;;
19923;SDS011;10124;53.068;18.224;2023-06-26T02:42:02;11.20;;;8.07;;
19923;SDS011;10124;53.068;18.224;2023-06-26T02:44:30;9.47;;;8.33;;
19923;SDS011;10124;53.068;18.224;2023-06-26T02:46:58;11.33;;;8.07;;
19923;SDS011;10124;53.068;18.224;2023-06-26T02:49:26;11.47;;;8.60;;
19923;SDS011;10124;53.068;18.224;2023-06-26T02:51:54;12.90;;;8.33;;
19923;SDS011;10124;53.068;18.224;2023-06-26T02:54:25;9.97;;;8.03;;
19923;SDS011;10124;53.068;18.224;2023-06-26T02:56:58;9.40;;;8.10;;
19923;SDS011;10124;53.068;18.224;2023-06-26T02:59:29;11.07;;;8.73;;
19923;SDS011;10124;53.068;18.224;2023-06-26T03:01:57;11.77;;;8.00;;
19923;SDS011;10124;53.068;18.224;2023-06-26T03:04:33;13.53;;;8.87;;
19923;SDS011;10124;53.068;18.224;2023-06-26T03:07:05;9.80;;;8.80;;
19923;SDS011;10124;53.068;18.224;2023-06-26T03:09:33;9.63;;;8.63;;
19923;SDS011;10124;53.068;18.224;2023-06-26T03:12:01;10.40;;;8.63;;
19923;SDS011;10124;53.068;18.224;2023-06-26T03:14:29;15.10;;;9.47;;
19923;SDS011;10124;53.068;18.224;2023-06-26T03:16:59;12.47;;;8.77;;
19923;SDS011;10124;53.068;18.224;2023-06-26T03:19:31;10.23;;;9.07;;
19923;SDS011;10124;53.068;18.224;2023-06-26T03:22:19;13.47;;;9.87;;
19923;SDS011;10124;53.068;18.224;2023-06-26T03:24:46;11.70;;;9.50;;
19923;SDS011;10124;53.068;18.224;2023-06-26T03:27:14;14.33;;;9.57;;
19923;SDS011;10124;53.068;18.224;2023-06-26T03:29:46;12.77;;;10.57;;
19923;SDS011;10124;53.068;18.224;2023-06-26T03:32:15;12.53;;;9.20;;
19923;SDS011;10124;53.068;18.224;2023-06-26T03:34:43;12.40;;;9.43;;
19923;SDS011;10124;53.068;18.224;2023-06-26T03:37:10;13.33;;;9.47;;
19923;SDS011;10124;53.068;18.224;2023-06-26T03:39:39;15.67;;;10.17;;
19923;SDS011;10124;53.068;18.224;2023-06-26T03:42:08;16.93;;;10.43;;
19923;SDS011;10124;53.068;18.224;2023-06-26T03:44:35;13.47;;;9.77;;
19923;SDS011;10124;53.068;18.224;2023-06-26T03:47:04;12.73;;;9.90;;
19923;SDS011;10124;53.068;18.224;2023-06-26T03:49:32;19.25;;;10.10;;
19923;SDS011;10124;53.068;18.224;2023-06-26T03:52:00;13.65;;;10.55;;
19923;SDS011;10124;53.068;18.224;2023-06-26T03:54:27;14.60;;;10.13;;
19923;SDS011;10124;53.068;18.224;2023-06-26T03:56:55;14.53;;;10.03;;
19923;SDS011;10124;53.068;18.224;2023-06-26T03:59:23;21.97;;;11.27;;
19923;SDS011;10124;53.068;18.224;2023-06-26T04:01:51;19.98;;;10.40;;
19923;SDS011;10124;53.068;18.224;2023-06-26T04:04:20;22.23;;;10.77;;
19923;SDS011;10124;53.068;18.224;2023-06-26T04:06:48;21.87;;;11.70;;
19923;SDS011;10124;53.068;18.224;2023-06-26T04:09:16;16.67;;;10.82;;
19923;SDS011;10124;53.068;18.224;2023-06-26T04:11:44;18.53;;;11.20;;
19923;SDS011;10124;53.068;18.224;2023-06-26T04:14:11;14.93;;;10.75;;
19923;SDS011;10124;53.068;18.224;2023-06-26T04:16:39;18.15;;;11.30;;
19923;SDS011;10124;53.068;18.224;2023-06-26T04:19:07;18.48;;;12.05;;
19923;SDS011;10124;53.068;18.224;2023-06-26T04:21:37;17.63;;;12.02;;
19923;SDS011;10124;53.068;18.224;2023-06-26T04:24:05;14.52;;;11.95;;
19923;SDS011;10124;53.068;18.224;2023-06-26T04:26:33;15.60;;;10.98;;
19923;SDS011;10124;53.068;18.224;2023-06-26T04:29:01;22.05;;;12.52;;
19923;SDS011;10124;53.068;18.224;2023-06-26T04:31:29;30.65;;;12.55;;
19923;SDS011;10124;53.068;18.224;2023-06-26T04:33:57;25.38;;;11.82;;
19923;SDS011;10124;53.068;18.224;2023-06-26T04:36:27;25.30;;;13.20;;
19923;SDS011;10124;53.068;18.224;2023-06-26T04:38:59;26.88;;;14.55;;
19923;SDS011;10124;53.068;18.224;2023-06-26T04:41:27;26.40;;;13.15;;
19923;SDS011;10124;53.068;18.224;2023-06-26T04:43:55;17.83;;;12.95;;
19923;SDS011;10124;53.068;18.224;2023-06-26T04:46:23;16.85;;;13.02;;
19923;SDS011;10124;53.068;18.224;2023-06-26T04:48:51;16.83;;;12.95;;
19923;SDS011;10124;53.068;18.224;2023-06-26T04:51:19;17.13;;;12.35;;
19923;SDS011;10124;53.068;18.224;2023-06-26T04:53:47;18.25;;;13.15;;
19923;SDS011;10124;53.068;18.224;2023-06-26T04:56:15;18.50;;;12.32;;
19923;SDS011;10124;53.068;18.224;2023-06-26T04:58:43;16.13;;;12.48;;
19923;SDS011;10124;53.068;18.224;2023-06-26T05:01:11;16.92;;;11.40;;
19923;SDS011;10124;53.068;18.224;2023-06-26T05:03:40;16.48;;;11.90;;
19923;SDS011;10124;53.068;18.224;2023-06-26T05:06:08;17.17;;;13.05;;
19923;SDS011;10124;53.068;18.224;2023-06-26T05:08:36;26.42;;;12.85;;
19923;SDS011;10124;53.068;18.224;2023-06-26T05:11:04;19.40;;;12.38;;
19923;SDS011;10124;53.068;18.224;2023-06-26T05:13:33;19.08;;;12.15;;
19923;SDS011;10124;53.068;18.224;2023-06-26T05:16:00;14.68;;;11.20;;
19923;SDS011;10124;53.068;18.224;2023-06-26T05:18:28;15.05;;;10.45;;
19923;SDS011;10124;53.068;18.224;2023-06-26T05:20:57;13.65;;;10.23;;
19923;SDS011;10124;53.068;18.224;2023-06-26T05:23:25;16.08;;;10.50;;
19923;SDS011;10124;53.068;18.224;2023-06-26T05:25:54;18.30;;;10.85;;
19923;SDS011;10124;53.068;18.224;2023-06-26T05:28:23;18.60;;;10.80;;
19923;SDS011;10124;53.068;18.224;2023-06-26T05:30:53;17.30;;;10.90;;
19923;SDS011;10124;53.068;18.224;2023-06-26T05:33:23;16.40;;;11.30;;
19923;SDS011;10124;53.068;18.224;2023-06-26T05:35:52;12.98;;;9.68;;
19923;SDS011;10124;53.068;18.224;2023-06-26T05:38:20;22.65;;;12.43;;
19923;SDS011;10124;53.068;18.224;2023-06-26T05:40:49;19.23;;;11.20;;
19923;SDS011;10124;53.068;18.224;2023-06-26T05:43:18;29.45;;;13.65;;
19923;SDS011;10124;53.068;18.224;2023-06-26T05:45:55;18.17;;;10.63;;
19923;SDS011;10124;53.068;18.224;2023-06-26T05:48:24;18.10;;;10.10;;
19923;SDS011;10124;53.068;18.224;2023-06-26T05:50:52;14.57;;;9.73;;
19923;SDS011;10124;53.068;18.224;2023-06-26T05:53:23;13.77;;;9.52;;
19923;SDS011;10124;53.068;18.224;2023-06-26T05:55:51;11.82;;;9.35;;
19923;SDS011;10124;53.068;18.224;2023-06-26T05:58:19;14.85;;;9.98;;
19923;SDS011;10124;53.068;18.224;2023-06-26T06:00:48;15.50;;;9.70;;
19923;SDS011;10124;53.068;18.224;2023-06-26T06:03:16;16.10;;;9.55;;
19923;SDS011;10124;53.068;18.224;2023-06-26T06:05:44;18.00;;;9.77;;
19923;SDS011;10124;53.068;18.224;2023-06-26T06:08:11;14.20;;;9.30;;
19923;SDS011;10124;53.068;18.224;2023-06-26T06:10:41;11.27;;;8.90;;
19923;SDS011;10124;53.068;18.224;2023-06-26T06:13:08;13.27;;;10.27;;
19923;SDS011;10124;53.068;18.224;2023-06-26T06:15:37;12.95;;;8.85;;
19923;SDS011;10124;53.068;18.224;2023-06-26T06:18:05;14.02;;;9.52;;
19923;SDS011;10124;53.068;18.224;2023-06-26T06:20:34;15.13;;;9.27;;
19923;SDS011;10124;53.068;18.224;2023-06-26T06:23:02;14.52;;;9.23;;
19923;SDS011;10124;53.068;18.224;2023-06-26T06:25:30;11.73;;;8.32;;
19923;SDS011;10124;53.068;18.224;2023-06-26T06:27:58;16.17;;;9.25;;
19923;SDS011;10124;53.068;18.224;2023-06-26T06:30:25;12.10;;;8.43;;
19923;SDS011;10124;53.068;18.224;2023-06-26T06:33:10;11.55;;;9.02;;
19923;SDS011;10124;53.068;18.224;2023-06-26T06:35:38;13.27;;;8.55;;
19923;SDS011;10124;53.068;18.224;2023-06-26T06:38:05;11.65;;;8.32;;
19923;SDS011;10124;53.068;18.224;2023-06-26T06:40:33;14.13;;;7.97;;
19923;SDS011;10124;53.068;18.224;2023-06-26T06:43:01;12.43;;;7.57;;
19923;SDS011;10124;53.068;18.224;2023-06-26T06:45:29;11.93;;;7.53;;
19923;SDS011;10124;53.068;18.224;2023-06-26T06:47:57;13.02;;;7.10;;
19923;SDS011;10124;53.068;18.224;2023-06-26T06:50:26;9.68;;;7.38;;
19923;SDS011;10124;53.068;18.224;2023-06-26T06:52:56;8.85;;;6.82;;
19923;SDS011;10124;53.068;18.224;2023-06-26T06:55:25;7.13;;;6.05;;
19923;SDS011;10124;53.068;18.224;2023-06-26T06:57:56;14.35;;;7.00;;
19923;SDS011;10124;53.068;18.224;2023-06-26T07:00:26;10.07;;;6.72;;
19923;SDS011;10124;53.068;18.224;2023-06-26T07:02:55;7.72;;;5.43;;
19923;SDS011;10124;53.068;18.224;2023-06-26T07:05:25;11.05;;;5.70;;
19923;SDS011;10124;53.068;18.224;2023-06-26T07:07:54;7.15;;;5.47;;
19923;SDS011;10124;53.068;18.224;2023-06-26T07:10:22;6.97;;;5.30;;
19923;SDS011;10124;53.068;18.224;2023-06-26T07:12:51;7.40;;;4.63;;
19923;SDS011;10124;53.068;18.224;2023-06-26T07:15:19;6.90;;;4.40;;
19923;SDS011;10124;53.068;18.224;2023-06-26T07:17:47;11.05;;;5.45;;
19923;SDS011;10124;53.068;18.224;2023-06-26T07:20:15;5.40;;;4.70;;
19923;SDS011;10124;53.068;18.224;2023-06-26T07:22:43;5.95;;;5.00;;
19923;SDS011;10124;53.068;18.224;2023-06-26T07:25:12;9.75;;;4.60;;
19923;SDS011;10124;53.068;18.224;2023-06-26T07:27:40;8.63;;;4.93;;
19923;SDS011;10124;53.068;18.224;2023-06-26T07:30:10;4.63;;;4.22;;
19923;SDS011;10124;53.068;18.224;2023-06-26T07:32:39;11.05;;;4.75;;
19923;SDS011;10124;53.068;18.224;2023-06-26T07:35:10;5.60;;;4.45;;
19923;SDS011;10124;53.068;18.224;2023-06-26T07:37:37;6.53;;;4.30;;
19923;SDS011;10124;53.068;18.224;2023-06-26T07:40:05;24.00;;;6.22;;
19923;SDS011;10124;53.068;18.224;2023-06-26T07:42:33;7.78;;;4.53;;
19923;SDS011;10124;53.068;18.224;2023-06-26T07:45:01;7.43;;;4.60;;
19923;SDS011;10124;53.068;18.224;2023-06-26T07:50:25;6.18;;;4.03;;
19923;SDS011;10124;53.068;18.224;2023-06-26T07:52:53;8.02;;;5.05;;
19923;SDS011;10124;53.068;18.224;2023-06-26T07:55:21;5.25;;;4.28;;
19923;SDS011;10124;53.068;18.224;2023-06-26T07:57:49;5.95;;;4.57;;
19923;SDS011;10124;53.068;18.224;2023-06-26T08:00:19;5.78;;;4.70;;
19923;SDS011;10124;53.068;18.224;2023-06-26T08:02:46;5.80;;;5.10;;
19923;SDS011;10124;53.068;18.224;2023-06-26T08:05:15;7.93;;;4.75;;
19923;SDS011;10124;53.068;18.224;2023-06-26T08:07:44;4.93;;;4.43;;
19923;SDS011;10124;53.068;18.224;2023-06-26T08:10:12;6.47;;;4.57;;
19923;SDS011;10124;53.068;18.224;2023-06-26T08:12:40;5.78;;;4.90;;
19923;SDS011;10124;53.068;18.224;2023-06-26T08:15:13;7.22;;;5.55;;
19923;SDS011;10124;53.068;18.224;2023-06-26T08:17:40;6.13;;;4.78;;
19923;SDS011;10124;53.068;18.224;2023-06-26T08:20:08;5.28;;;4.38;;
19923;SDS011;10124;53.068;18.224;2023-06-26T08:22:37;7.07;;;5.22;;
19923;SDS011;10124;53.068;18.224;2023-06-26T08:25:07;6.03;;;4.18;;
19923;SDS011;10124;53.068;18.224;2023-06-26T08:27:35;42.05;;;6.65;;
19923;SDS011;10124;53.068;18.224;2023-06-26T08:30:03;5.57;;;3.83;;
19923;SDS011;10124;53.068;18.224;2023-06-26T08:32:32;12.07;;;5.03;;
19923;SDS011;10124;53.068;18.224;2023-06-26T08:35:03;4.97;;;4.18;;
19923;SDS011;10124;53.068;18.224;2023-06-26T08:37:36;4.93;;;3.85;;
19923;SDS011;10124;53.068;18.224;2023-06-26T08:40:06;10.10;;;4.25;;
19923;SDS011;10124;53.068;18.224;2023-06-26T08:42:34;69.40;;;9.02;;
19923;SDS011;10124;53.068;18.224;2023-06-26T08:45:02;30.38;;;5.38;;
19923;SDS011;10124;53.068;18.224;2023-06-26T08:47:30;309.88;;;25.02;;
19923;SDS011;10124;53.068;18.224;2023-06-26T08:50:10;43.10;;;6.30;;
19923;SDS011;10124;53.068;18.224;2023-06-26T08:52:42;4.43;;;4.03;;
19923;SDS011;10124;53.068;18.224;2023-06-26T08:55:13;12.18;;;3.92;;
19923;SDS011;10124;53.068;18.224;2023-06-26T08:57:43;8.63;;;4.00;;
19923;SDS011;10124;53.068;18.224;2023-06-26T09:00:14;11.82;;;4.03;;
19923;SDS011;10124;53.068;18.224;2023-06-26T09:02:42;13.95;;;4.15;;
19923;SDS011;10124;53.068;18.224;2023-06-26T09:05:12;6.13;;;3.58;;
19923;SDS011;10124;53.068;18.224;2023-06-26T09:07:40;10.45;;;4.70;;
19923;SDS011;10124;53.068;18.224;2023-06-26T09:10:09;8.57;;;4.10;;
19923;SDS011;10124;53.068;18.224;2023-06-26T09:12:37;8.95;;;3.58;;
19923;SDS011;10124;53.068;18.224;2023-06-26T09:15:05;3.70;;;3.30;;
19923;SDS011;10124;53.068;18.224;2023-06-26T09:17:38;3.67;;;3.28;;
19923;SDS011;10124;53.068;18.224;2023-06-26T09:20:08;4.75;;;3.00;;
19923;SDS011;10124;53.068;18.224;2023-06-26T09:22:37;9.13;;;3.42;;
19923;SDS011;10124;53.068;18.224;2023-06-26T09:25:06;4.88;;;3.47;;
19923;SDS011;10124;53.068;18.224;2023-06-26T09:27:34;3.70;;;3.33;;
19923;SDS011;10124;53.068;18.224;2023-06-26T09:30:03;4.07;;;3.45;;
19923;SDS011;10124;53.068;18.224;2023-06-26T09:32:36;6.72;;;3.58;;
19923;SDS011;10124;53.068;18.224;2023-06-26T09:35:05;4.55;;;3.22;;
19923;SDS011;10124;53.068;18.224;2023-06-26T09:37:32;6.25;;;3.45;;
19923;SDS011;10124;53.068;18.224;2023-06-26T09:40:02;6.70;;;4.00;;
19923;SDS011;10124;53.068;18.224;2023-06-26T09:42:31;5.05;;;3.72;;
19923;SDS011;10124;53.068;18.224;2023-06-26T09:45:00;4.00;;;3.28;;
19923;SDS011;10124;53.068;18.224;2023-06-26T09:47:32;5.35;;;3.30;;
19923;SDS011;10124;53.068;18.224;2023-06-26T09:50:05;4.60;;;2.92;;
19923;SDS011;10124;53.068;18.224;2023-06-26T09:52:34;3.75;;;3.10;;
19923;SDS011;10124;53.068;18.224;2023-06-26T09:55:09;5.15;;;3.83;;
19923;SDS011;10124;53.068;18.224;2023-06-26T09:57:37;4.15;;;3.20;;
19923;SDS011;10124;53.068;18.224;2023-06-26T10:00:07;6.65;;;3.28;;
19923;SDS011;10124;53.068;18.224;2023-06-26T10:02:42;5.45;;;3.60;;
19923;SDS011;10124;53.068;18.224;2023-06-26T10:05:12;5.53;;;3.00;;
19923;SDS011;10124;53.068;18.224;2023-06-26T10:07:40;4.43;;;3.30;;
19923;SDS011;10124;53.068;18.224;2023-06-26T10:10:08;4.72;;;3.15;;
19923;SDS011;10124;53.068;18.224;2023-06-26T10:12:37;3.83;;;2.97;;
19923;SDS011;10124;53.068;18.224;2023-06-26T10:15:05;5.57;;;3.50;;
19923;SDS011;10124;53.068;18.224;2023-06-26T10:17:39;9.90;;;3.85;;
19923;SDS011;10124;53.068;18.224;2023-06-26T10:20:11;6.07;;;3.40;;
19923;SDS011;10124;53.068;18.224;2023-06-26T10:22:45;6.03;;;3.45;;
19923;SDS011;10124;53.068;18.224;2023-06-26T10:25:16;5.68;;;3.25;;
19923;SDS011;10124;53.068;18.224;2023-06-26T10:27:48;6.30;;;3.55;;
19923;SDS011;10124;53.068;18.224;2023-06-26T10:30:23;23.75;;;5.50;;
19923;SDS011;10124;53.068;18.224;2023-06-26T10:32:55;5.10;;;3.25;;
19923;SDS011;10124;53.068;18.224;2023-06-26T10:35:24;6.30;;;2.95;;
19923;SDS011;10124;53.068;18.224;2023-06-26T10:37:59;4.85;;;3.45;;
19923;SDS011;10124;53.068;18.224;2023-06-26T10:40:46;3.45;;;3.10;;
19923;SDS011;10124;53.068;18.224;2023-06-26T10:43:17;4.20;;;3.05;;
19923;SDS011;10124;53.068;18.224;2023-06-26T10:45:46;3.63;;;2.75;;
19923;SDS011;10124;53.068;18.224;2023-06-26T10:48:21;4.13;;;3.10;;
19923;SDS011;10124;53.068;18.224;2023-06-26T10:50:50;4.47;;;3.15;;
19923;SDS011;10124;53.068;18.224;2023-06-26T10:55:56;3.92;;;3.35;;
19923;SDS011;10124;53.068;18.224;2023-06-26T11:01:23;4.97;;;3.03;;
19923;SDS011;10124;53.068;18.224;2023-06-26T11:06:25;9.13;;;3.40;;
19923;SDS011;10124;53.068;18.224;2023-06-26T11:08:54;6.97;;;3.38;;
19923;SDS011;10124;53.068;18.224;2023-06-26T11:14:20;4.35;;;3.15;;
19923;SDS011;10124;53.068;18.224;2023-06-26T11:16:50;251.23;;;22.13;;
19923;SDS011;10124;53.068;18.224;2023-06-26T11:19:20;12.93;;;3.38;;
19923;SDS011;10124;53.068;18.224;2023-06-26T11:21:50;7.40;;;3.55;;
19923;SDS011;10124;53.068;18.224;2023-06-26T11:24:19;3.63;;;2.83;;
19923;SDS011;10124;53.068;18.224;2023-06-26T11:26:48;3.35;;;3.05;;
19923;SDS011;10124;53.068;18.224;2023-06-26T11:29:15;3.95;;;3.28;;
19923;SDS011;10124;53.068;18.224;2023-06-26T11:31:43;3.47;;;3.17;;
19923;SDS011;10124;53.068;18.224;2023-06-26T11:34:12;4.32;;;3.40;;
19923;SDS011;10124;53.068;18.224;2023-06-26T11:36:41;4.43;;;3.53;;
19923;SDS011;10124;53.068;18.224;2023-06-26T11:39:12;7.18;;;3.33;;
19923;SDS011;10124;53.068;18.224;2023-06-26T11:41:40;6.90;;;3.88;;
19923;SDS011;10124;53.068;18.224;2023-06-26T11:44:09;5.65;;;3.50;;
19923;SDS011;10124;53.068;18.224;2023-06-26T11:46:37;5.35;;;3.50;;
19923;SDS011;10124;53.068;18.224;2023-06-26T11:49:06;5.55;;;3.75;;
19923;SDS011;10124;53.068;18.224;2023-06-26T11:51:35;17.13;;;4.53;;
19923;SDS011;10124;53.068;18.224;2023-06-26T11:54:06;8.85;;;4.00;;
19923;SDS011;10124;53.068;18.224;2023-06-26T11:56:39;12.73;;;4.25;;
19923;SDS011;10124;53.068;18.224;2023-06-26T11:59:10;7.13;;;3.42;;
19923;SDS011;10124;53.068;18.224;2023-06-26T12:01:43;6.88;;;3.90;;
19923;SDS011;10124;53.068;18.224;2023-06-26T12:04:15;5.15;;;4.05;;
19923;SDS011;10124;53.068;18.224;2023-06-26T12:06:45;4.15;;;3.63;;
19923;SDS011;10124;53.068;18.224;2023-06-26T12:09:20;5.97;;;3.67;;
19923;SDS011;10124;53.068;18.224;2023-06-26T12:11:50;7.85;;;3.72;;
19923;SDS011;10124;53.068;18.224;2023-06-26T12:14:22;7.68;;;3.72;;
19923;SDS011;10124;53.068;18.224;2023-06-26T12:16:52;10.20;;;4.40;;
19923;SDS011;10124;53.068;18.224;2023-06-26T12:19:24;7.70;;;4.28;;
19923;SDS011;10124;53.068;18.224;2023-06-26T12:21:56;6.20;;;4.10;;
19923;SDS011;10124;53.068;18.224;2023-06-26T12:24:26;9.18;;;4.78;;
19923;SDS011;10124;53.068;18.224;2023-06-26T12:27:02;9.32;;;4.75;;
19923;SDS011;10124;53.068;18.224;2023-06-26T12:29:39;8.10;;;4.72;;
19923;SDS011;10124;53.068;18.224;2023-06-26T12:32:17;8.13;;;4.57;;
19923;SDS011;10124;53.068;18.224;2023-06-26T12:34:48;5.45;;;4.90;;
19923;SDS011;10124;53.068;18.224;2023-06-26T12:37:17;7.55;;;4.57;;
19923;SDS011;10124;53.068;18.224;2023-06-26T12:39:57;8.55;;;4.03;;
19923;SDS011;10124;53.068;18.224;2023-06-26T12:42:27;6.28;;;3.92;;
19923;SDS011;10124;53.068;18.224;2023-06-26T12:44:55;4.95;;;3.97;;
19923;SDS011;10124;53.068;18.224;2023-06-26T12:47:26;9.30;;;4.20;;
19923;SDS011;10124;53.068;18.224;2023-06-26T12:49:58;11.70;;;4.00;;
19923;SDS011;10124;53.068;18.224;2023-06-26T12:52:38;5.93;;;4.03;;
19923;SDS011;10124;53.068;18.224;2023-06-26T12:55:11;6.90;;;3.75;;
19923;SDS011;10124;53.068;18.224;2023-06-26T12:57:45;8.23;;;3.95;;
19923;SDS011;10124;53.068;18.224;2023-06-26T13:00:14;5.32;;;3.75;;
19923;SDS011;10124;53.068;18.224;2023-06-26T13:02:43;6.72;;;3.40;;
19923;SDS011;10124;53.068;18.224;2023-06-26T13:05:14;4.45;;;3.75;;
19923;SDS011;10124;53.068;18.224;2023-06-26T13:07:44;8.10;;;3.72;;
19923;SDS011;10124;53.068;18.224;2023-06-26T13:10:13;7.88;;;3.90;;
19923;SDS011;10124;53.068;18.224;2023-06-26T13:12:41;8.27;;;3.85;;
19923;SDS011;10124;53.068;18.224;2023-06-26T13:15:09;6.82;;;4.30;;
19923;SDS011;10124;53.068;18.224;2023-06-26T13:17:37;4.53;;;3.83;;
19923;SDS011;10124;53.068;18.224;2023-06-26T13:20:05;10.00;;;4.85;;
19923;SDS011;10124;53.068;18.224;2023-06-26T13:22:33;7.88;;;4.80;;
19923;SDS011;10124;53.068;18.224;2023-06-26T13:25:03;6.18;;;4.47;;
19923;SDS011;10124;53.068;18.224;2023-06-26T13:27:31;4.78;;;4.28;;
19923;SDS011;10124;53.068;18.224;2023-06-26T13:30:00;26.92;;;6.13;;
19923;SDS011;10124;53.068;18.224;2023-06-26T13:32:32;9.82;;;4.57;;
19923;SDS011;10124;53.068;18.224;2023-06-26T13:35:00;7.18;;;3.75;;
19923;SDS011;10124;53.068;18.224;2023-06-26T13:37:28;6.32;;;3.97;;
19923;SDS011;10124;53.068;18.224;2023-06-26T13:40:04;5.60;;;3.83;;
19923;SDS011;10124;53.068;18.224;2023-06-26T13:42:36;8.10;;;3.83;;
19923;SDS011;10124;53.068;18.224;2023-06-26T13:45:06;5.57;;;4.10;;
19923;SDS011;10124;53.068;18.224;2023-06-26T13:47:52;4.82;;;3.80;;
19923;SDS011;10124;53.068;18.224;2023-06-26T13:50:20;4.05;;;3.65;;
19923;SDS011;10124;53.068;18.224;2023-06-26T13:52:48;8.25;;;4.53;;
19923;SDS011;10124;53.068;18.224;2023-06-26T13:55:16;5.45;;;4.22;;
19923;SDS011;10124;53.068;18.224;2023-06-26T13:57:44;4.80;;;3.92;;
19923;SDS011;10124;53.068;18.224;2023-06-26T14:00:15;4.35;;;3.67;;
19923;SDS011;10124;53.068;18.224;2023-06-26T14:02:47;6.60;;;4.10;;
19923;SDS011;10124;53.068;18.224;2023-06-26T14:05:15;7.60;;;4.60;;
19923;SDS011;10124;53.068;18.224;2023-06-26T14:07:59;13.05;;;4.32;;
19923;SDS011;10124;53.068;18.224;2023-06-26T14:10:29;6.18;;;3.80;;
19923;SDS011;10124;53.068;18.224;2023-06-26T14:12:58;7.45;;;4.20;;
19923;SDS011;10124;53.068;18.224;2023-06-26T14:15:26;6.07;;;4.20;;
19923;SDS011;10124;53.068;18.224;2023-06-26T14:17:55;9.48;;;3.92;;
19923;SDS011;10124;53.068;18.224;2023-06-26T14:20:23;5.85;;;3.83;;
19923;SDS011;10124;53.068;18.224;2023-06-26T14:22:51;22.45;;;4.35;;
19923;SDS011;10124;53.068;18.224;2023-06-26T14:25:20;6.93;;;3.85;;
19923;SDS011;10124;53.068;18.224;2023-06-26T14:27:47;4.57;;;4.00;;
19923;SDS011;10124;53.068;18.224;2023-06-26T14:30:16;6.88;;;3.95;;
19923;SDS011;10124;53.068;18.224;2023-06-26T14:32:45;5.85;;;4.43;;
19923;SDS011;10124;53.068;18.224;2023-06-26T14:35:13;7.03;;;4.28;;
19923;SDS011;10124;53.068;18.224;2023-06-26T14:37:41;5.93;;;4.43;;
19923;SDS011;10124;53.068;18.224;2023-06-26T14:40:12;11.02;;;3.92;;
19923;SDS011;10124;53.068;18.224;2023-06-26T14:42:40;4.72;;;4.07;;
19923;SDS011;10124;53.068;18.224;2023-06-26T14:45:11;7.95;;;3.97;;
19923;SDS011;10124;53.068;18.224;2023-06-26T14:47:40;5.72;;;4.00;;
19923;SDS011;10124;53.068;18.224;2023-06-26T14:50:08;7.88;;;4.32;;
19923;SDS011;10124;53.068;18.224;2023-06-26T14:52:36;4.70;;;4.15;;
19923;SDS011;10124;53.068;18.224;2023-06-26T14:55:04;6.57;;;4.53;;
19923;SDS011;10124;53.068;18.224;2023-06-26T14:57:34;6.55;;;4.07;;